createdAt,value
2022-08-08T00:02:29.813Z,60.24
2022-08-08T00:04:55.709Z,60.08
2022-08-08T00:07:34.944Z,59.90
2022-08-08T00:10:13.116Z,60.11
2022-08-08T00:12:56.680Z,59.92
2022-08-08T00:15:57.539Z,60.25
2022-08-08T00:18:23.446Z,60.00
2022-08-08T00:20:57.575Z,60.10
2022-08-08T00:23:43.087Z,60.22
2022-08-08T00:26:29.190Z,60.13
2022-08-08T00:29:08.342Z,60.00
2022-08-08T00:32:28.420Z,60.07
2022-08-08T00:34:59.928Z,60.26
2022-08-08T00:37:46.874Z,60.14
2022-08-08T00:41:09.859Z,59.99
2022-08-08T00:44:20.179Z,60.35
2022-08-08T00:47:23.205Z,60.26
2022-08-08T00:50:24.174Z,60.10
2022-08-08T00:52:59.277Z,60.30
2022-08-08T00:56:09.418Z,60.47
2022-08-08T00:59:44.007Z,60.31
2022-08-08T01:03:57.338Z,60.43
2022-08-08T01:05:59.508Z,59.92
2022-08-08T01:09:35.561Z,60.25
2022-08-08T01:12:42.030Z,60.14
2022-08-08T01:15:47.297Z,60.12
2022-08-08T01:18:54.020Z,60.20
2022-08-08T01:22:07.335Z,60.41
2022-08-08T01:24:59.907Z,60.15
2022-08-08T01:28:00.226Z,60.54
2022-08-08T01:31:02.813Z,60.13
2022-08-08T01:34:20.120Z,60.41
2022-08-08T01:37:48.015Z,60.52
2022-08-08T01:40:28.143Z,60.53
2022-08-08T01:43:04.962Z,60.11
2022-08-08T01:45:56.337Z,60.36
2022-08-08T01:48:40.530Z,60.41
2022-08-08T01:52:49.943Z,60.14
2022-08-08T01:55:25.900Z,60.08
2022-08-08T01:58:11.708Z,60.15
2022-08-08T02:00:50.336Z,60.46
2022-08-08T02:03:55.984Z,60.47
2022-08-08T02:06:43.586Z,60.58
2022-08-08T02:10:02.020Z,60.40
2022-08-08T02:12:25.012Z,60.54
2022-08-08T02:15:03.094Z,60.45
2022-08-08T02:17:43.385Z,60.34
2022-08-08T02:21:01.409Z,60.46
2022-08-08T02:23:16.511Z,60.40
2022-08-08T02:25:53.460Z,60.60
2022-08-08T02:28:43.115Z,60.53
2022-08-08T02:31:58.035Z,60.16
2022-08-08T02:35:08.255Z,60.23
2022-08-08T02:37:56.733Z,60.60
2022-08-08T02:40:38.920Z,60.67
2022-08-08T02:44:45.505Z,60.70
2022-08-08T02:46:44.387Z,60.79
2022-08-08T02:49:48.016Z,60.43
2022-08-08T02:52:54.396Z,60.42
2022-08-08T02:56:10.413Z,60.85
2022-08-08T02:59:57.159Z,60.42
2022-08-08T03:02:50.277Z,60.37
2022-08-08T03:05:53.473Z,60.75
2022-08-08T03:08:58.970Z,60.54
2022-08-08T03:12:15.768Z,60.80
2022-08-08T03:15:56.482Z,60.41
2022-08-08T03:18:04.666Z,60.32
2022-08-08T03:20:43.454Z,60.51
2022-08-08T03:23:17.760Z,60.63
2022-08-08T03:25:50.293Z,60.75
2022-08-08T03:28:22.685Z,60.76
2022-08-08T03:31:22.096Z,60.39
2022-08-08T03:33:58.231Z,60.59
2022-08-08T03:36:30.341Z,60.66
2022-08-08T03:39:14.696Z,60.75
2022-08-08T03:42:26.894Z,60.69
2022-08-08T03:44:34.625Z,60.77
2022-08-08T03:47:17.606Z,60.77
2022-08-08T03:50:00.411Z,60.60
2022-08-08T03:52:31.770Z,60.57
2022-08-08T03:55:10.229Z,60.71
2022-08-08T03:58:30.319Z,60.54
2022-08-08T04:00:30.758Z,60.51
2022-08-08T04:03:01.873Z,60.61
2022-08-08T04:05:35.320Z,60.55
2022-08-08T04:08:06.923Z,60.84
2022-08-08T04:10:37.462Z,60.52
2022-08-08T04:13:18.182Z,60.68
2022-08-08T04:16:04.076Z,60.67
2022-08-08T04:18:42.017Z,60.61
2022-08-08T04:21:26.782Z,60.74
2022-08-08T04:24:12.260Z,60.53
2022-08-08T04:26:57.635Z,60.80
2022-08-08T04:29:26.612Z,60.80
2022-08-08T04:31:59.473Z,60.88
2022-08-08T04:34:32.204Z,60.70
2022-08-08T04:37:12.465Z,60.78
2022-08-08T04:40:04.597Z,60.57
2022-08-08T04:42:36.985Z,60.72
2022-08-08T04:45:06.413Z,60.93
2022-08-08T04:47:36.728Z,60.69
2022-08-08T04:50:14.357Z,60.78
2022-08-08T04:53:00.902Z,60.74
2022-08-08T04:55:47.403Z,60.88
2022-08-08T04:58:23.953Z,60.71
2022-08-08T05:00:54.005Z,60.83
2022-08-08T05:04:09.293Z,60.68
2022-08-08T05:06:12.512Z,61.05
2022-08-08T05:08:51.619Z,61.14
2022-08-08T05:11:24.592Z,61.03
2022-08-08T05:14:01.015Z,61.03
2022-08-08T05:16:52.195Z,61.20
2022-08-08T05:20:10.730Z,61.02
2022-08-08T05:22:11.326Z,60.69
2022-08-08T05:24:40.279Z,60.88
2022-08-08T05:27:09.064Z,60.92
2022-08-08T05:29:40.809Z,60.95
2022-08-08T05:32:10.078Z,60.75
2022-08-08T05:34:47.363Z,60.81
2022-08-08T05:37:20.891Z,60.84
2022-08-08T05:39:53.330Z,60.85
2022-08-08T05:42:26.039Z,61.18
2022-08-08T05:45:00.594Z,60.84
2022-08-08T05:47:52.810Z,61.04
2022-08-08T05:50:19.882Z,61.14
2022-08-08T05:52:50.161Z,60.88
2022-08-08T05:55:19.495Z,60.82
2022-08-08T05:58:04.218Z,61.05
2022-08-08T06:00:37.049Z,60.80
2022-08-08T06:03:24.914Z,61.18
2022-08-08T06:06:01.155Z,61.15
2022-08-08T06:08:34.435Z,61.28
2022-08-08T06:11:05.713Z,60.97
2022-08-08T06:13:36.496Z,61.09
2022-08-08T06:16:19.032Z,61.22
2022-08-08T06:18:55.453Z,61.30
2022-08-08T06:21:28.458Z,61.27
2022-08-08T06:24:05.294Z,60.93
2022-08-08T06:26:52.611Z,61.31
2022-08-08T06:29:59.183Z,61.33
2022-08-08T06:32:23.166Z,60.83
2022-08-08T06:35:34.975Z,61.15
2022-08-08T06:37:50.891Z,61.10
2022-08-08T06:40:26.668Z,60.93
2022-08-08T06:42:58.821Z,61.20
2022-08-08T06:45:28.696Z,61.17
2022-08-08T06:48:01.515Z,61.07
2022-08-08T06:50:38.159Z,61.22
2022-08-08T06:53:17.547Z,61.27
2022-08-08T06:56:02.234Z,60.88
2022-08-08T06:58:33.568Z,61.00
2022-08-08T07:01:52.635Z,61.04
2022-08-08T07:04:40.006Z,60.77
2022-08-08T07:06:51.880Z,60.92
2022-08-08T07:09:21.955Z,60.92
2022-08-08T07:11:59.567Z,61.07
2022-08-08T07:14:38.835Z,61.11
2022-08-08T07:17:09.363Z,61.17
2022-08-08T07:19:59.929Z,60.90
2022-08-08T07:22:39.265Z,60.97
2022-08-08T07:25:14.571Z,61.21
2022-08-08T07:28:07.677Z,61.26
2022-08-08T07:30:36.772Z,60.94
2022-08-08T07:33:11.422Z,61.39
2022-08-08T07:35:54.375Z,60.79
2022-08-08T07:38:25.759Z,61.28
2022-08-08T07:41:04.585Z,60.97
2022-08-08T07:43:37.625Z,60.83
2022-08-08T07:46:24.365Z,61.13
2022-08-08T07:48:57.100Z,61.07
2022-08-08T07:51:45.185Z,60.87
2022-08-08T07:54:28.683Z,61.10
2022-08-08T07:57:08.859Z,61.22
2022-08-08T07:59:45.628Z,60.80
2022-08-08T08:02:32.955Z,60.75
2022-08-08T08:05:04.378Z,61.13
2022-08-08T08:07:52.899Z,60.94
2022-08-08T08:10:30.690Z,60.89
2022-08-08T08:13:25.779Z,61.03
2022-08-08T08:16:13.617Z,61.01
2022-08-08T08:18:55.744Z,61.12
2022-08-08T08:21:44.765Z,61.06
2022-08-08T08:24:18.674Z,61.04
2022-08-08T08:26:52.777Z,60.97
2022-08-08T08:29:27.795Z,60.96
2022-08-08T08:31:59.063Z,60.64
2022-08-08T08:34:32.496Z,60.77
2022-08-08T08:37:08.008Z,61.09
2022-08-08T08:40:01.727Z,60.99
2022-08-08T08:42:35.141Z,60.77
2022-08-08T08:45:10.134Z,60.89
2022-08-08T08:47:53.221Z,61.09
2022-08-08T08:50:32.951Z,60.65
2022-08-08T08:53:27.786Z,60.70
2022-08-08T08:56:02.468Z,61.05
2022-08-08T08:58:38.082Z,61.00
2022-08-08T09:01:09.652Z,60.77
2022-08-08T09:03:46.984Z,60.96
2022-08-08T09:06:28.550Z,60.69
2022-08-08T09:09:07.474Z,61.13
2022-08-08T09:12:02.202Z,61.07
2022-08-08T09:14:42.272Z,60.84
2022-08-08T09:17:17.906Z,61.10
2022-08-08T09:21:59.700Z,61.24
2022-08-08T09:22:39.399Z,61.21
2022-08-08T09:25:09.651Z,60.76
2022-08-08T09:27:55.873Z,60.85
2022-08-08T09:30:29.819Z,61.21
2022-08-08T09:33:12.457Z,61.10
2022-08-08T09:35:51.304Z,60.99
2022-08-08T09:38:52.985Z,60.96
2022-08-08T09:41:54.682Z,61.21
2022-08-08T09:44:52.194Z,61.18
2022-08-08T09:48:03.817Z,60.80
2022-08-08T09:50:14.321Z,60.91
2022-08-08T09:52:55.535Z,61.11
2022-08-08T09:56:02.818Z,60.69
2022-08-08T09:58:27.593Z,61.07
2022-08-08T10:01:15.095Z,61.15
2022-08-08T10:04:02.451Z,61.19
2022-08-08T10:06:35.573Z,60.68
2022-08-08T10:09:05.718Z,61.11
2022-08-08T10:12:27.399Z,61.09
2022-08-08T10:14:35.366Z,60.92
2022-08-08T10:17:56.873Z,60.79
2022-08-08T10:20:01.245Z,60.73
2022-08-08T10:22:36.132Z,60.98
2022-08-08T10:25:15.703Z,61.23
2022-08-08T10:27:47.127Z,60.98
2022-08-08T10:30:57.014Z,60.72
2022-08-08T10:33:12.316Z,60.90
2022-08-08T10:36:08.923Z,60.94
2022-08-08T10:38:32.281Z,60.94
2022-08-08T10:41:05.420Z,61.01
2022-08-08T10:43:40.379Z,60.77
2022-08-08T10:46:29.604Z,60.90
2022-08-08T10:49:01.625Z,61.18
2022-08-08T10:51:47.061Z,61.30
2022-08-08T10:54:27.090Z,61.03
2022-08-08T10:56:58.960Z,61.21
2022-08-08T10:59:31.148Z,60.97
2022-08-08T11:01:59.537Z,61.07
2022-08-08T11:04:39.454Z,61.30
2022-08-08T11:07:39.205Z,60.98
2022-08-08T11:10:02.200Z,61.14
2022-08-08T11:12:31.454Z,60.87
2022-08-08T11:15:07.510Z,60.94
2022-08-08T11:18:01.000Z,61.28
2022-08-08T11:20:30.100Z,61.32
2022-08-08T11:23:00.605Z,61.18
2022-08-08T11:25:52.614Z,61.20
2022-08-08T11:28:29.603Z,61.19
2022-08-08T11:31:04.018Z,61.02
2022-08-08T11:33:51.850Z,61.07
2022-08-08T11:36:27.933Z,61.05
2022-08-08T11:38:58.631Z,61.25
2022-08-08T11:41:32.434Z,61.21
2022-08-08T11:44:03.871Z,61.03
2022-08-08T11:46:35.045Z,61.27
2022-08-08T11:49:09.420Z,60.98
2022-08-08T11:51:50.037Z,61.21
2022-08-08T11:54:33.600Z,61.24
2022-08-08T11:57:23.720Z,61.32
2022-08-08T12:00:01.179Z,61.11
2022-08-08T12:02:34.961Z,60.92
2022-08-08T12:05:07.872Z,60.97
2022-08-08T12:07:53.008Z,61.11
2022-08-08T12:10:24.450Z,60.91
2022-08-08T12:13:04.168Z,60.97
2022-08-08T12:15:42.551Z,60.89
2022-08-08T12:18:21.220Z,60.93
2022-08-08T12:20:53.223Z,60.90
2022-08-08T12:23:40.746Z,61.09
2022-08-08T12:26:28.022Z,61.01
2022-08-08T12:29:05.850Z,60.98
2022-08-08T12:31:53.025Z,60.95
2022-08-08T12:34:36.490Z,61.02
2022-08-08T12:37:11.252Z,61.23
2022-08-08T12:40:00.364Z,61.22
2022-08-08T12:42:33.501Z,61.04
2022-08-08T12:45:53.779Z,61.36
2022-08-08T12:48:18.215Z,61.24
2022-08-08T12:50:57.730Z,60.96
2022-08-08T12:53:30.233Z,60.95
2022-08-08T12:56:18.099Z,60.93
2022-08-08T12:58:51.734Z,61.18
2022-08-08T13:01:29.523Z,61.21
2022-08-08T13:04:18.937Z,60.89
2022-08-08T13:07:03.004Z,60.96
2022-08-08T13:10:00.778Z,61.36
2022-08-08T13:12:33.448Z,61.15
2022-08-08T13:15:05.894Z,60.91
2022-08-08T13:17:54.373Z,61.05
2022-08-08T13:20:27.304Z,61.16
2022-08-08T13:23:30.255Z,61.32
2022-08-08T13:25:58.815Z,60.90
2022-08-08T13:28:33.463Z,61.17
2022-08-08T13:31:04.454Z,61.27
2022-08-08T13:33:42.063Z,61.17
2022-08-08T13:36:14.692Z,60.90
2022-08-08T13:38:47.106Z,60.99
2022-08-08T13:41:17.344Z,61.08
2022-08-08T13:43:49.952Z,61.38
2022-08-08T13:46:27.318Z,61.07
2022-08-08T13:49:12.157Z,61.38
2022-08-08T13:51:57.733Z,61.38
2022-08-08T13:54:31.278Z,60.93
2022-08-08T13:57:14.966Z,61.35
2022-08-08T13:59:48.085Z,60.98
2022-08-08T14:02:30.884Z,61.29
2022-08-08T14:05:08.934Z,61.19
2022-08-08T14:07:53.082Z,61.21
2022-08-08T14:10:33.195Z,60.95
2022-08-08T14:13:30.364Z,61.20
2022-08-08T14:16:07.818Z,61.27
2022-08-08T14:18:55.789Z,60.98
2022-08-08T14:21:40.545Z,61.13
2022-08-08T14:24:31.753Z,61.42
2022-08-08T14:27:01.868Z,60.95
2022-08-08T14:29:39.613Z,61.17
2022-08-08T14:32:17.838Z,61.09
2022-08-08T14:34:54.531Z,61.02
2022-08-08T14:37:27.960Z,60.98
2022-08-08T14:40:13.033Z,61.11
2022-08-08T14:42:55.392Z,60.97
2022-08-08T14:46:01.157Z,61.17
2022-08-08T14:48:27.290Z,61.07
2022-08-08T14:51:07.098Z,61.31
2022-08-08T14:53:56.160Z,60.94
2022-08-08T14:56:25.919Z,61.27
2022-08-08T14:58:54.922Z,61.37
2022-08-08T15:01:40.992Z,61.20
2022-08-08T15:04:13.258Z,60.97
2022-08-08T15:06:42.638Z,61.01
2022-08-08T15:09:14.567Z,61.18
2022-08-08T15:11:52.838Z,61.15
2022-08-08T15:14:25.243Z,60.99
2022-08-08T15:16:55.363Z,61.08
2022-08-08T15:19:28.938Z,61.30
2022-08-08T15:21:58.008Z,61.41
2022-08-08T15:24:31.279Z,61.29
2022-08-08T15:27:04.070Z,61.21
2022-08-08T15:29:51.650Z,61.23
2022-08-08T15:32:31.324Z,61.32
2022-08-08T15:35:04.236Z,61.25
2022-08-08T15:37:34.217Z,61.02
2022-08-08T15:40:03.372Z,61.26
2022-08-08T15:42:33.924Z,61.04
2022-08-08T15:45:05.935Z,60.97
2022-08-08T15:47:35.475Z,61.31
2022-08-08T15:50:19.932Z,60.90
2022-08-08T15:52:48.849Z,61.31
2022-08-08T15:55:17.807Z,60.99
2022-08-08T15:57:50.957Z,61.04
2022-08-08T16:00:27.781Z,61.10
2022-08-08T16:02:59.206Z,60.88
2022-08-08T16:05:35.451Z,61.23
2022-08-08T16:08:03.999Z,61.19
2022-08-08T16:13:09.815Z,61.08
2022-08-08T16:13:29.998Z,61.05
2022-08-08T16:16:09.060Z,61.03
2022-08-08T16:18:41.646Z,61.18
2022-08-08T16:21:20.687Z,61.53
2022-08-08T16:23:55.778Z,61.37
2022-08-08T16:26:33.691Z,61.17
2022-08-08T16:29:08.107Z,61.17
2022-08-08T16:31:41.303Z,61.54
2022-08-08T16:34:11.121Z,61.45
2022-08-08T16:36:41.794Z,61.55
2022-08-08T16:39:28.011Z,61.42
2022-08-08T16:42:01.788Z,61.34
2022-08-08T16:44:34.389Z,61.29
2022-08-08T16:47:21.625Z,61.62
2022-08-08T16:49:59.833Z,61.43
2022-08-08T16:55:04.483Z,61.24
2022-08-08T16:55:53.199Z,61.45
2022-08-08T16:58:15.174Z,61.66
2022-08-08T17:00:48.706Z,61.44
2022-08-08T17:03:25.107Z,61.84
2022-08-08T17:06:35.785Z,61.71
2022-08-08T17:09:02.644Z,61.79
2022-08-08T17:11:38.902Z,61.94
2022-08-08T17:14:18.756Z,61.89
2022-08-08T17:16:52.082Z,62.07
2022-08-08T17:19:29.131Z,62.11
2022-08-08T17:22:01.504Z,61.95
2022-08-08T17:24:32.880Z,61.89
2022-08-08T17:27:03.089Z,62.06
2022-08-08T17:29:36.644Z,61.98
2022-08-08T17:32:12.034Z,61.72
2022-08-08T17:35:52.911Z,62.12
2022-08-08T17:37:33.270Z,62.01
2022-08-08T17:40:13.098Z,62.26
2022-08-08T17:42:47.086Z,62.09
2022-08-08T17:45:22.545Z,62.30
2022-08-08T17:47:54.615Z,62.42
2022-08-08T17:50:23.899Z,62.41
2022-08-08T17:52:52.805Z,62.34
2022-08-08T17:56:06.148Z,62.24
2022-08-08T17:58:11.827Z,62.12
2022-08-08T18:00:41.208Z,62.21
2022-08-08T18:03:13.205Z,62.50
2022-08-08T18:05:49.077Z,62.62
2022-08-08T18:08:24.470Z,62.52
2022-08-08T18:11:11.617Z,62.36
2022-08-08T18:13:42.935Z,62.19
2022-08-08T18:16:12.915Z,62.57
2022-08-08T18:18:53.486Z,62.64
2022-08-08T18:21:59.564Z,62.55
2022-08-08T18:24:19.463Z,62.18
2022-08-08T18:26:55.001Z,62.30
2022-08-08T18:29:26.210Z,62.49
2022-08-08T18:31:57.589Z,62.19
2022-08-08T18:34:27.587Z,62.57
2022-08-08T18:36:56.059Z,61.96
2022-08-08T18:39:28.321Z,62.17
2022-08-08T18:42:02.999Z,62.14
2022-08-08T18:44:33.139Z,62.18
2022-08-08T18:47:03.121Z,62.63
2022-08-08T18:49:57.389Z,62.31
2022-08-08T18:52:22.294Z,62.24
2022-08-08T18:54:59.231Z,62.36
2022-08-08T18:57:31.919Z,62.33
2022-08-08T19:00:10.648Z,62.08
2022-08-08T19:02:48.068Z,62.38
2022-08-08T19:05:23.222Z,62.29
2022-08-08T19:07:52.361Z,62.01
2022-08-08T19:10:20.834Z,62.46
2022-08-08T19:12:53.563Z,62.24
2022-08-08T19:15:25.957Z,62.48
2022-08-08T19:18:31.198Z,62.07
2022-08-08T19:20:43.074Z,62.47
2022-08-08T19:23:14.794Z,62.46
2022-08-08T19:26:20.127Z,62.12
2022-08-08T19:28:36.597Z,62.53
2022-08-08T19:31:08.980Z,62.53
2022-08-08T19:34:04.282Z,62.47
2022-08-08T19:36:28.486Z,62.20
2022-08-08T19:38:56.488Z,62.08
2022-08-08T19:41:29.259Z,62.32
2022-08-08T19:44:03.603Z,62.17
2022-08-08T19:46:33.508Z,62.55
2022-08-08T19:49:04.188Z,62.04
2022-08-08T19:51:34.781Z,62.19
2022-08-08T19:54:07.541Z,62.28
2022-08-08T19:56:40.687Z,62.32
2022-08-08T19:59:11.686Z,62.47
2022-08-08T20:02:02.420Z,62.31
2022-08-08T20:04:29.360Z,61.99
2022-08-08T20:07:05.482Z,62.05
2022-08-08T20:09:56.309Z,62.51
2022-08-08T20:12:32.039Z,62.46
2022-08-08T20:15:16.768Z,62.03
2022-08-08T20:17:47.434Z,62.21
2022-08-08T20:20:19.081Z,62.24
2022-08-08T20:22:54.162Z,62.40
2022-08-08T20:25:26.372Z,62.30
2022-08-08T20:27:57.758Z,62.41
2022-08-08T20:30:38.935Z,61.92
2022-08-08T20:35:58.397Z,62.19
2022-08-08T20:38:32.901Z,62.47
2022-08-08T20:41:17.095Z,62.06
2022-08-08T20:43:49.750Z,62.37
2022-08-08T20:46:20.964Z,62.30
2022-08-08T20:48:51.403Z,62.15
2022-08-08T20:51:20.969Z,62.26
2022-08-08T20:53:59.090Z,62.00
2022-08-08T20:56:35.218Z,62.20
2022-08-08T20:59:05.885Z,62.36
2022-08-08T21:02:05.992Z,62.20
2022-08-08T21:04:24.231Z,62.07
2022-08-08T21:06:55.627Z,62.33
2022-08-08T21:09:24.254Z,62.15
2022-08-08T21:12:02.786Z,62.29
2022-08-08T21:14:34.308Z,62.16
2022-08-08T21:17:06.278Z,61.93
2022-08-08T21:19:45.959Z,62.18
2022-08-08T21:22:16.118Z,61.94
2022-08-08T21:24:53.665Z,62.36
2022-08-08T21:28:06.581Z,62.35
2022-08-08T21:30:17.948Z,62.00
2022-08-08T21:32:51.957Z,61.96
2022-08-08T21:36:14.675Z,62.05
2022-08-08T21:38:17.249Z,62.16
2022-08-08T21:40:56.055Z,62.03
2022-08-08T21:43:34.388Z,62.16
2022-08-08T21:48:05.673Z,62.04
2022-08-08T21:48:55.440Z,62.26
2022-08-08T21:54:17.480Z,62.23
2022-08-08T21:54:31.914Z,61.96
2022-08-08T21:57:03.817Z,62.00
2022-08-08T21:59:43.761Z,62.31
2022-08-08T22:02:23.399Z,62.05
2022-08-08T22:04:55.647Z,61.93
2022-08-08T22:07:34.674Z,62.09
2022-08-08T22:10:09.813Z,62.15
2022-08-08T22:12:45.806Z,62.23
2022-08-08T22:15:14.949Z,61.90
2022-08-08T22:17:45.672Z,62.35
2022-08-08T22:20:23.411Z,61.99
2022-08-08T22:22:52.617Z,61.90
2022-08-08T22:25:25.281Z,62.07
2022-08-08T22:28:03.672Z,62.07
2022-08-08T22:30:33.563Z,61.89
2022-08-08T22:33:01.701Z,62.12
2022-08-08T22:36:04.146Z,62.02
2022-08-08T22:38:20.299Z,62.16
2022-08-08T22:40:49.123Z,62.35
2022-08-08T22:43:17.293Z,62.26
2022-08-08T22:45:46.571Z,62.11
2022-08-08T22:48:21.696Z,61.85
2022-08-08T22:50:51.755Z,61.84
2022-08-08T22:54:27.849Z,61.92
2022-08-08T22:56:08.468Z,61.92
2022-08-08T22:58:38.139Z,62.23
2022-08-08T23:01:16.676Z,62.22
2022-08-08T23:03:56.396Z,62.22
2022-08-08T23:06:26.868Z,62.08
2022-08-08T23:08:58.772Z,61.97
2022-08-08T23:12:17.571Z,62.08
2022-08-08T23:14:17.281Z,61.80
2022-08-08T23:16:47.162Z,62.17
2022-08-08T23:19:18.672Z,62.23
2022-08-08T23:21:48.116Z,62.13
2022-08-08T23:24:22.338Z,61.79
2022-08-08T23:26:55.421Z,61.89
2022-08-08T23:29:24.771Z,62.04
2022-08-08T23:31:53.195Z,61.81
2022-08-08T23:34:22.109Z,62.00
2022-08-08T23:36:57.693Z,61.85
2022-08-08T23:39:32.113Z,61.83
2022-08-08T23:42:09.540Z,62.02
2022-08-08T23:44:38.636Z,61.68
2022-08-08T23:49:05.463Z,61.62
2022-08-08T23:50:03.133Z,61.86
2022-08-08T23:52:34.980Z,61.93
2022-08-08T23:55:14.069Z,61.71
2022-08-08T23:57:53.083Z,61.77
